Time;durP1;ratioP1;P1;durP2;ratioP2;P2;SDS_P1;SDS_P2;PMS_P1;PMS_P2;Temp;Humidity;BMP_temperature;BMP_pressure;BME280_temperature;BME280_humidity;BME280_pressure;Samples;Min_cycle;Max_cycle;Signal;HPM_P1;HPM_P2
2023/05/19 00:01:36;;;;;;;5.82;1.52;;;;;;;13.84;47.66;100896.13;10229032;28;20055;-66
2023/05/19 00:06:37;;;;;;;;;;;;;;;13.78;47.68;100892.13;10249601;28;20055;-66
2023/05/19 00:11:39;;;;;;;3.55;1.25;;;;;;;13.76;47.34;100901.25;10230994;28;19952;-67
2023/05/19 00:16:41;;;;;;;8.10;1.77;;;;;;;13.64;47.46;100889.75;10231448;28;20222;-67
2023/05/19 00:21:43;;;;;;;5.20;1.42;;;;;;;13.54;47.85;100899.50;10229314;28;20070;-67
2023/05/19 00:26:44;;;;;;;4.80;1.55;;;;;;;13.44;48.42;100897.59;10230938;28;20062;-67
2023/05/19 00:31:45;;;;;;;4.28;1.40;;;;;;;13.29;48.54;100872.09;10212671;28;20182;-68
2023/05/19 00:36:47;;;;;;;4.50;1.40;;;;;;;13.36;48.31;100881.34;10228007;28;20046;-66
2023/05/19 00:41:48;;;;;;;4.10;1.38;;;;;;;13.37;48.23;100875.00;10215867;28;20393;-67
2023/05/19 00:46:50;;;;;;;7.22;1.48;;;;;;;13.21;48.87;100872.72;10224059;28;20085;-67
2023/05/19 00:51:52;;;;;;;3.30;1.42;;;;;;;13.12;49.17;100881.50;10221338;28;20130;-69
2023/05/19 00:56:54;;;;;;;4.25;0.82;;;;;;;13.09;49.22;100879.91;10239471;28;24988;-67
2023/05/19 01:01:56;;;;;;;4.05;1.27;;;;;;;13.08;49.03;100877.38;10234740;28;20691;-69
2023/05/19 01:06:57;;;;;;;4.60;1.65;;;;;;;12.88;49.46;100863.81;10235214;28;20097;-67
2023/05/19 01:12:00;;;;;;;5.78;1.60;;;;;;;12.86;49.79;100873.75;10235953;28;20824;-66
2023/05/19 01:17:43;;;;;;;5.97;1.77;;;;;;;12.83;50.17;100854.44;10233066;28;20832;-68
2023/05/19 01:23:13;;;;;;;4.75;1.35;;;;;;;12.80;50.44;100870.72;10235957;28;20339;-68
2023/05/19 01:28:37;;;;;;;4.22;1.50;;;;;;;12.77;50.47;100870.97;10218540;28;20047;-67
2023/05/19 01:33:41;;;;;;;3.43;1.33;;;;;;;12.70;50.37;100868.81;10218600;28;20520;-67
2023/05/19 01:38:45;;;;;;;2.28;1.20;;;;;;;12.59;50.59;100863.44;10217009;28;20483;-69
2023/05/19 01:43:48;;;;;;;6.28;1.55;;;;;;;12.59;50.84;100855.44;10230495;28;20047;-67
2023/05/19 01:48:51;;;;;;;6.80;1.98;;;;;;;12.59;50.61;100874.13;10239908;28;20046;-68
2023/05/19 01:53:52;;;;;;;4.18;1.73;;;;;;;12.44;51.01;100860.16;10219686;28;20109;-66
2023/05/19 01:59:04;;;;;;;4.88;1.48;;;;;;;12.36;51.22;100858.09;10231894;28;20089;-68
2023/05/19 02:04:18;;;;;;;3.83;1.45;;;;;;;12.47;51.20;100869.75;10230274;28;20051;-67
2023/05/19 02:09:36;;;;;;;3.20;1.60;;;;;;;12.41;51.50;100867.59;10232673;28;20146;-66
2023/05/19 02:14:50;;;;;;;4.88;1.10;;;;;;;12.40;51.77;100879.22;10232225;28;20541;-73
2023/05/19 02:19:52;;;;;;;1.55;1.08;;;;;;;12.30;51.34;100865.75;10248756;28;20053;-69
2023/05/19 02:24:55;;;;;;;4.88;1.45;;;;;;;12.35;51.72;100871.56;10236309;28;20117;-66
2023/05/19 02:29:57;;;;;;;7.60;1.80;;;;;;;12.32;51.52;100861.97;10232572;28;20186;-67
2023/05/19 02:34:58;;;;;;;5.95;1.45;;;;;;;12.30;51.51;100855.91;10233660;28;20146;-67
2023/05/19 02:40:00;;;;;;;3.45;1.10;;;;;;;12.38;51.41;100871.34;10213138;28;21672;-67
2023/05/19 02:45:01;;;;;;;4.18;1.33;;;;;;;12.25;52.19;100863.44;10231063;28;20643;-67
2023/05/19 02:50:04;;;;;;;3.63;1.15;;;;;;;12.20;51.75;100836.25;10231503;28;20134;-68
2023/05/19 02:55:06;;;;;;;3.78;1.30;;;;;;;12.25;52.26;100860.78;10235017;28;20059;-66
2023/05/19 03:00:08;;;;;;;3.03;1.27;;;;;;;11.98;52.58;100837.94;10235786;28;20082;-67
2023/05/19 03:05:10;;;;;;;5.45;1.55;;;;;;;11.96;52.91;100826.50;10224710;28;20137;-68
2023/05/19 03:10:11;;;;;;;3.60;1.55;;;;;;;11.92;53.39;100854.38;10232430;28;20058;-68
2023/05/19 03:15:13;;;;;;;2.10;1.00;;;;;;;11.96;52.94;100855.84;10233532;28;20067;-67
2023/05/19 03:20:15;;;;;;;3.25;1.92;;;;;;;11.93;53.68;100856.09;10234860;28;20059;-68
2023/05/19 03:25:16;;;;;;;4.70;1.60;;;;;;;11.88;53.40;100836.91;10230588;28;20062;-68
2023/05/19 03:30:18;;;;;;;5.78;1.30;;;;;;;11.88;53.01;100841.41;10230068;28;20166;-68
2023/05/19 03:35:19;;;;;;;2.10;1.38;;;;;;;11.99;53.27;100860.97;10231731;28;20456;-66
2023/05/19 03:40:21;;;;;;;3.40;1.30;;;;;;;11.90;53.59;100856.28;10231799;28;20063;-66
2023/05/19 03:45:22;;;;;;;4.78;1.40;;;;;;;11.91;53.47;100857.16;10212556;28;20074;-66
2023/05/19 03:50:23;;;;;;;3.78;1.77;;;;;;;11.95;53.57;100854.19;10231789;28;20089;-66
2023/05/19 03:55:28;;;;;;;3.30;1.70;;;;;;;11.95;53.55;100867.50;10233565;28;20058;-66
2023/05/19 04:00:30;;;;;;;3.25;1.42;;;;;;;11.85;53.65;100861.16;10248582;28;20161;-66
2023/05/19 04:05:31;;;;;;;3.22;1.48;;;;;;;11.79;54.59;100862.44;10230721;28;20138;-68
2023/05/19 04:10:33;;;;;;;5.88;1.63;;;;;;;11.83;54.74;100860.41;10228686;28;20076;-67
2023/05/19 04:15:35;;;;;;;5.32;1.90;;;;;;;11.68;54.67;100846.44;10213006;28;20066;-67
2023/05/19 04:20:36;;;;;;;4.57;2.17;;;;;;;11.84;54.49;100870.09;10204257;28;20417;-67
2023/05/19 04:25:39;;;;;;;4.25;1.80;;;;;;;11.90;54.47;100866.97;10230509;28;20183;-67
2023/05/19 04:30:41;;;;;;;4.88;2.33;;;;;;;11.94;54.56;100868.47;10239623;28;20627;-68
2023/05/19 04:35:42;;;;;;;4.43;1.50;;;;;;;11.82;54.23;100851.56;10239730;28;20054;-67
2023/05/19 04:40:44;;;;;;;5.03;1.95;;;;;;;11.88;53.95;100871.59;10233847;28;20146;-68
2023/05/19 04:45:46;;;;;;;4.57;2.30;;;;;;;11.78;55.11;100889.25;10237972;28;20098;-68
2023/05/19 04:50:48;;;;;;;3.75;1.60;;;;;;;11.78;55.01;100866.06;10249576;28;20066;-67
2023/05/19 04:55:50;;;;;;;3.42;1.67;;;;;;;11.83;54.99;100876.44;10220832;28;20426;-66
2023/05/19 05:00:54;;;;;;;5.85;2.00;;;;;;;11.89;54.87;100886.63;10229408;28;20162;-68
2023/05/19 05:05:57;;;;;;;6.25;1.90;;;;;;;11.97;54.85;100884.25;10237182;28;20050;-67
2023/05/19 05:10:59;;;;;;;3.78;2.15;;;;;;;11.90;54.68;100876.78;10216573;28;20604;-68
2023/05/19 05:16:00;;;;;;;5.65;1.70;;;;;;;11.97;54.71;100881.56;10232631;28;20508;-66
2023/05/19 05:21:03;;;;;;;4.18;1.92;;;;;;;11.78;55.22;100842.06;10231142;28;20110;-69
2023/05/19 05:26:10;;;;;;;3.58;1.67;;;;;;;11.96;54.60;100855.84;10233394;28;20062;-68
2023/05/19 05:31:11;;;;;;;4.00;1.58;;;;;;;12.06;54.94;100873.84;10213600;28;20601;-68
2023/05/19 05:36:13;;;;;;;7.05;2.70;;;;;;;12.29;54.89;100878.22;10215581;28;20062;-67
2023/05/19 05:41:14;;;;;;;4.85;1.75;;;;;;;12.36;54.38;100878.63;10228432;28;20059;-71
2023/05/19 05:46:16;;;;;;;3.90;2.08;;;;;;;12.51;54.07;100868.56;10227569;28;20058;-66
2023/05/19 05:51:20;;;;;;;3.10;1.45;;;;;;;12.38;54.54;100868.66;10227512;28;20049;-68
2023/05/19 05:56:22;;;;;;;4.45;1.90;;;;;;;12.61;54.55;100861.53;10225053;28;20054;-66
2023/05/19 06:01:23;;;;;;;3.97;2.17;;;;;;;12.80;54.42;100871.56;10228547;28;20533;-65
2023/05/19 06:06:25;;;;;;;4.45;1.50;;;;;;;12.83;53.67;100857.13;10231977;28;22059;-66
2023/05/19 06:11:27;;;;;;;5.82;1.98;;;;;;;13.06;53.34;100860.59;10236800;28;20057;-66
2023/05/19 06:16:28;;;;;;;3.58;1.58;;;;;;;13.29;53.14;100872.09;10219605;28;20066;-66
2023/05/19 06:21:30;;;;;;;3.63;1.60;;;;;;;13.25;52.61;100849.25;10227013;28;20051;-67
2023/05/19 06:26:32;;;;;;;5.00;1.73;;;;;;;13.37;52.97;100866.16;10223886;28;20058;-68
2023/05/19 06:31:33;;;;;;;5.07;1.60;;;;;;;13.59;52.41;100875.91;10208619;28;20066;-67
2023/05/19 06:36:35;;;;;;;50.15;11.25;;;;;;;13.71;51.95;100879.41;10229117;28;20056;-66
2023/05/19 06:41:36;;;;;;;5.55;2.30;;;;;;;13.74;52.53;100877.31;10233243;28;20063;-69
2023/05/19 06:46:38;;;;;;;5.13;1.85;;;;;;;13.93;51.97;100873.94;10194585;28;20160;-68
2023/05/19 06:51:40;;;;;;;4.47;1.92;;;;;;;14.02;52.44;100871.44;10203409;28;20054;-68
2023/05/19 06:56:41;;;;;;;2.85;1.35;;;;;;;14.07;51.56;100864.72;10222856;28;20061;-68
2023/05/19 07:01:42;;;;;;;7.18;1.85;;;;;;;14.33;51.56;100861.63;10232316;28;20051;-66
2023/05/19 07:06:44;;;;;;;4.78;1.85;;;;;;;14.29;50.86;100844.09;10201254;28;20051;-68
2023/05/19 07:11:55;;;;;;;4.63;1.33;;;;;;;14.65;51.31;100866.00;10379979;27;20475;-52
2023/05/19 07:16:56;;;;;;;3.47;1.42;;;;;;;14.83;50.21;100853.69;10375594;28;20346;-58
2023/05/19 07:21:58;;;;;;;2.40;1.20;;;;;;;15.10;49.99;100848.66;10372353;28;20054;-57
2023/05/19 07:27:00;;;;;;;3.20;1.38;;;;;;;15.34;49.15;100840.22;10382086;28;21632;-56
2023/05/19 07:32:01;;;;;;;4.65;1.42;;;;;;;15.43;49.31;100838.53;10413289;28;20413;-58
2023/05/19 07:37:03;;;;;;;7.95;1.67;;;;;;;15.46;48.29;100840.91;10416197;28;20128;-58
2023/05/19 07:42:05;;;;;;;6.90;2.17;;;;;;;15.44;48.34;100843.75;10413578;28;20076;-57
2023/05/19 07:47:06;;;;;;;4.53;2.40;;;;;;;15.45;48.63;100824.00;10409471;28;20060;-59
2023/05/19 07:52:08;;;;;;;3.92;1.52;;;;;;;15.60;48.22;100812.81;10416406;28;20056;-57
2023/05/19 07:57:10;;;;;;;3.53;1.48;;;;;;;15.81;48.75;100818.91;10412765;28;20090;-57
2023/05/19 08:02:11;;;;;;;4.85;1.50;;;;;;;15.96;48.15;100819.31;10410586;28;20723;-57
2023/05/19 08:07:13;;;;;;;4.68;1.27;;;;;;;16.07;47.80;100808.38;10410729;28;20152;-58
2023/05/19 08:12:14;;;;;;;4.20;1.50;;;;;;;16.31;47.27;100806.19;10408437;28;20148;-58
2023/05/19 08:17:16;;;;;;;4.63;1.80;;;;;;;16.44;46.94;100812.91;10412612;28;20056;-57
2023/05/19 08:22:17;;;;;;;3.92;2.10;;;;;;;16.71;46.88;100807.69;10388803;28;20440;-57
2023/05/19 08:27:18;;;;;;;4.22;1.35;;;;;;;16.86;46.76;100795.44;10390690;28;20140;-57
2023/05/19 08:32:20;;;;;;;3.72;1.20;;;;;;;17.16;46.18;100808.69;10387513;28;20230;-56
2023/05/19 08:37:22;;;;;;;5.07;1.38;;;;;;;17.41;45.27;100796.31;10387864;28;20575;-56
2023/05/19 08:42:24;;;;;;;4.22;1.50;;;;;;;17.65;44.37;100796.53;10378414;28;20409;-56
2023/05/19 08:47:26;;;;;;;3.30;1.45;;;;;;;17.79;44.05;100775.41;10380854;28;20064;-57
2023/05/19 08:52:44;;;;;;;7.13;1.83;;;;;;;17.95;44.22;100780.94;10380910;28;20044;-57
2023/05/19 08:57:50;;;;;;;2.63;1.13;;;;;;;18.14;43.27;100766.41;10389988;28;20139;-57
2023/05/19 09:02:52;;;;;;;5.15;1.30;;;;;;;18.18;41.96;100770.47;10384755;28;20127;-57
2023/05/19 09:08:06;;;;;;;5.20;1.27;;;;;;;18.43;41.84;100764.34;10385680;28;20106;-57
2023/05/19 09:13:08;;;;;;;3.95;2.20;;;;;;;18.56;41.85;100759.34;10383367;28;20562;-57
2023/05/19 09:18:11;;;;;;;5.03;1.30;;;;;;;18.89;41.53;100746.81;10388154;28;20057;-58
2023/05/19 09:23:15;;;;;;;3.15;1.65;;;;;;;19.17;39.87;100737.56;10385894;28;20675;-57
2023/05/19 09:28:28;;;;;;;;;;;;;;;19.31;38.52;100742.31;10388568;28;20060;-57
2023/05/19 09:33:32;;;;;;;3.97;1.30;;;;;;;19.49;38.29;100735.88;10385917;28;19921;-56
2023/05/19 09:38:35;;;;;;;3.08;0.90;;;;;;;19.70;37.65;100736.19;10388270;28;20052;-54
2023/05/19 09:43:36;;;;;;;5.90;1.77;;;;;;;19.94;35.52;100732.59;10389432;28;20577;-55
2023/05/19 09:48:38;;;;;;;1.88;0.80;;;;;;;20.27;36.01;100739.78;10386181;28;20045;-55
2023/05/19 09:53:40;;;;;;;3.13;1.08;;;;;;;20.37;34.32;100724.19;10385297;28;20585;-55
2023/05/19 09:58:42;;;;;;;6.28;1.60;;;;;;;20.55;33.79;100715.81;10383395;28;20124;-55
2023/05/19 10:03:44;;;;;;;2.78;1.08;;;;;;;20.98;34.78;100715.38;10374534;28;20126;-52
2023/05/19 10:08:46;;;;;;;2.60;0.70;;;;;;;21.15;34.08;100703.41;10388034;28;20158;-52
2023/05/19 10:13:50;;;;;;;2.90;1.20;;;;;;;21.08;33.90;100705.16;10386257;28;20056;-52
2023/05/19 10:18:54;;;;;;;1.23;0.60;;;;;;;21.15;33.67;100700.72;10384307;28;20045;-52
2023/05/19 10:23:55;;;;;;;2.03;0.80;;;;;;;21.15;33.64;100703.41;10386872;28;20060;-52
2023/05/19 10:28:58;;;;;;;4.20;1.70;;;;;;;21.21;33.88;100701.00;10383501;28;20087;-52
2023/05/19 10:34:20;;;;;;;3.22;2.03;;;;;;;21.62;33.43;100700.63;10383135;28;20147;-52
2023/05/19 10:39:31;;;;;;;2.10;1.40;;;;;;;21.99;32.92;100677.19;10386514;28;20069;-53
2023/05/19 10:44:59;;;;;;;2.55;0.98;;;;;;;22.16;32.98;100675.97;10384902;28;20699;-52
2023/05/19 10:50:03;;;;;;;2.05;1.00;;;;;;;21.98;32.33;100678.19;10370873;28;20049;-52
2023/05/19 10:55:08;;;;;;;3.25;0.90;;;;;;;21.89;32.81;100666.66;10382063;28;20597;-52
2023/05/19 11:00:27;;;;;;;3.38;0.90;;;;;;;22.02;32.77;100660.53;10383928;28;21048;-52
2023/05/19 11:05:29;;;;;;;3.28;0.95;;;;;;;21.88;33.22;100662.25;10384137;28;20891;-51
2023/05/19 11:10:31;;;;;;;2.03;1.00;;;;;;;21.69;33.44;100656.38;10388422;28;20265;-52
2023/05/19 11:15:35;;;;;;;3.67;1.10;;;;;;;21.83;34.32;100662.81;10381803;28;20053;-52
2023/05/19 11:20:37;;;;;;;3.10;0.90;;;;;;;22.22;33.77;100666.22;10380321;28;20060;-54
2023/05/19 11:25:50;;;;;;;2.13;1.50;;;;;;;22.28;33.85;100661.91;10386994;28;20080;-51
2023/05/19 11:30:53;;;;;;;2.60;1.30;;;;;;;22.53;34.15;100660.56;10382258;28;20153;-54
2023/05/19 11:35:57;;;;;;;1.50;0.90;;;;;;;22.60;34.09;100650.59;10383052;28;20130;-52
2023/05/19 11:40:59;;;;;;;3.28;1.02;;;;;;;22.87;33.04;100650.88;10386581;28;20057;-52
2023/05/19 11:46:03;;;;;;;3.47;1.38;;;;;;;22.95;32.49;100637.19;10384384;28;23080;-52
2023/05/19 11:51:05;;;;;;;1.75;0.93;;;;;;;23.21;32.58;100629.44;10383314;28;20445;-52
2023/05/19 11:56:07;;;;;;;4.13;1.10;;;;;;;23.32;32.61;100628.91;10385768;28;20067;-55
2023/05/19 12:01:09;;;;;;;3.20;1.30;;;;;;;23.20;32.80;100631.34;10387881;28;20220;-52
2023/05/19 12:06:12;;;;;;;3.70;1.35;;;;;;;23.23;32.95;100630.94;10392947;28;20551;-52
2023/05/19 12:11:13;;;;;;;;;;;;;;;23.32;31.90;100625.38;10389412;28;20048;-51
2023/05/19 12:16:21;;;;;;;3.30;1.20;;;;;;;23.67;33.08;100618.03;10392017;28;19925;-50
2023/05/19 12:21:23;;;;;;;2.42;1.20;;;;;;;24.00;31.58;100620.97;10390894;28;21412;-54
2023/05/19 12:26:36;;;;;;;3.53;1.38;;;;;;;23.86;31.71;100626.53;10381331;28;20052;-52
2023/05/19 12:31:37;;;;;;;3.63;1.20;;;;;;;23.66;32.22;100621.81;10384413;28;20057;-52
2023/05/19 12:36:40;;;;;;;2.30;1.20;;;;;;;23.51;32.20;100621.94;10383848;28;20049;-53
2023/05/19 12:41:44;;;;;;;2.00;0.93;;;;;;;23.54;32.87;100624.25;10384465;28;20195;-52
2023/05/19 12:46:45;;;;;;;2.15;0.90;;;;;;;23.47;32.86;100616.03;10387044;28;20141;-52
2023/05/19 12:51:51;;;;;;;2.25;1.13;;;;;;;23.43;32.97;100611.22;10384536;28;20049;-52
2023/05/19 12:56:56;;;;;;;2.65;1.00;;;;;;;23.48;32.97;100604.16;10391972;28;20589;-51
2023/05/19 13:01:58;;;;;;;1.83;0.85;;;;;;;23.59;31.87;100593.75;10388759;28;20052;-53
2023/05/19 13:07:00;;;;;;;3.08;1.38;;;;;;;23.55;31.82;100606.91;10386987;28;20209;-53
2023/05/19 13:12:03;;;;;;;1.85;1.13;;;;;;;23.49;31.73;100596.84;10389634;28;20111;-52
2023/05/19 13:17:05;;;;;;;1.80;0.70;;;;;;;23.57;31.91;100588.53;10384276;28;20114;-57
2023/05/19 13:22:07;;;;;;;2.25;1.13;;;;;;;23.23;31.54;100552.19;10387468;28;20061;-57
2023/05/19 13:27:08;;;;;;;3.00;1.35;;;;;;;23.33;32.18;100586.28;10386362;28;20053;-56
2023/05/19 13:32:10;;;;;;;1.30;1.00;;;;;;;23.08;31.13;100573.16;10381756;28;20156;-56
2023/05/19 13:37:12;;;;;;;2.07;1.00;;;;;;;23.16;31.20;100567.59;10381371;28;20074;-56
2023/05/19 13:42:16;;;;;;;6.13;1.20;;;;;;;23.18;31.15;100564.69;10387106;28;20052;-56
2023/05/19 13:47:18;;;;;;;2.42;1.00;;;;;;;23.17;31.18;100568.44;10390160;28;20049;-56
2023/05/19 13:52:20;;;;;;;3.70;1.20;;;;;;;23.23;31.01;100562.22;10381251;28;20551;-56
2023/05/19 13:57:25;;;;;;;2.25;0.93;;;;;;;23.27;30.88;100569.75;10380069;28;20064;-59
2023/05/19 14:02:26;;;;;;;3.28;1.00;;;;;;;23.15;31.15;100565.94;10384733;28;20320;-56
2023/05/19 14:07:29;;;;;;;3.00;1.15;;;;;;;22.91;31.72;100550.91;10383583;28;20383;-57
2023/05/19 14:12:31;;;;;;;5.30;3.60;;;;;;;22.84;31.23;100545.41;10380606;28;20382;-57
2023/05/19 14:17:47;;;;;;;3.00;1.30;;;;;;;22.83;31.78;100556.47;10376505;28;20199;-57
2023/05/19 14:22:49;;;;;;;2.45;1.83;;;;;;;22.82;32.54;100550.22;10381570;28;20118;-57
2023/05/19 14:27:51;;;;;;;4.32;1.30;;;;;;;22.62;32.95;100543.78;10376506;28;20048;-56
2023/05/19 14:32:53;;;;;;;3.35;1.10;;;;;;;22.67;33.18;100553.00;10372401;28;20177;-56
2023/05/19 14:37:54;;;;;;;3.80;1.52;;;;;;;22.58;33.75;100540.63;10368730;28;20124;-56
2023/05/19 14:42:56;;;;;;;2.25;1.20;;;;;;;22.45;33.80;100532.38;10377671;28;21201;-55
2023/05/19 14:47:58;;;;;;;3.47;1.80;;;;;;;22.32;34.01;100533.06;10372643;28;20072;-56
2023/05/19 14:52:59;;;;;;;1.83;1.30;;;;;;;22.14;33.99;100537.03;10374636;28;20057;-56
2023/05/19 14:58:01;;;;;;;2.50;0.95;;;;;;;22.17;33.85;100535.81;10377122;28;20095;-56
2023/05/19 15:03:10;;;;;;;4.00;1.23;;;;;;;22.15;33.96;100536.00;10381941;28;20135;-56
2023/05/19 15:08:12;;;;;;;3.20;1.52;;;;;;;22.09;34.11;100520.53;10372548;28;20199;-55
2023/05/19 15:13:13;;;;;;;4.75;2.28;;;;;;;22.13;34.31;100523.66;10373642;28;20104;-56
2023/05/19 15:18:17;;;;;;;3.03;1.33;;;;;;;21.92;34.32;100514.50;10370942;28;20057;-57
2023/05/19 15:23:19;;;;;;;2.80;1.30;;;;;;;21.74;35.10;100531.19;10371487;28;20048;-55
2023/05/19 15:28:20;;;;;;;4.20;1.67;;;;;;;21.76;34.79;100536.41;10375242;28;20049;-57
2023/05/19 15:33:22;;;;;;;2.72;1.30;;;;;;;21.66;34.82;100524.03;10379718;28;20646;-58
2023/05/19 15:38:24;;;;;;;2.53;1.30;;;;;;;21.50;34.70;100529.66;10380293;28;20083;-58
2023/05/19 15:43:28;;;;;;;3.78;1.10;;;;;;;21.56;34.67;100528.03;10385463;28;20053;-58
2023/05/19 15:48:31;;;;;;;3.22;1.60;;;;;;;21.60;34.62;100524.75;10381750;28;20060;-58
2023/05/19 15:53:32;;;;;;;4.53;1.52;;;;;;;21.65;34.61;100521.50;10383426;28;20060;-57
2023/05/19 15:58:34;;;;;;;3.22;1.45;;;;;;;21.68;34.36;100531.94;10373923;28;20917;-57
2023/05/19 16:03:35;;;;;;;3.65;1.50;;;;;;;21.59;33.84;100527.66;10380368;28;20472;-57
2023/05/19 16:08:37;;;;;;;4.10;1.67;;;;;;;21.60;33.40;100523.91;10381159;28;20070;-57
2023/05/19 16:13:38;;;;;;;4.00;1.50;;;;;;;21.52;33.81;100524.88;10382914;28;20705;-57
2023/05/19 16:18:41;;;;;;;4.05;1.45;;;;;;;21.46;33.74;100523.72;10373640;28;20129;-57
2023/05/19 16:23:43;;;;;;;3.03;1.17;;;;;;;21.33;34.47;100518.97;10383611;28;20057;-61
2023/05/19 16:28:44;;;;;;;2.88;1.27;;;;;;;21.50;34.28;100519.66;10375474;28;20060;-57
2023/05/19 16:33:45;;;;;;;3.22;1.10;;;;;;;21.44;34.33;100525.78;10382018;28;20159;-57
2023/05/19 16:38:47;;;;;;;3.05;1.27;;;;;;;21.42;34.18;100517.00;10381007;28;20049;-57
2023/05/19 16:43:49;;;;;;;2.28;1.30;;;;;;;21.29;34.41;100511.44;10379561;28;20067;-56
2023/05/19 16:48:50;;;;;;;2.78;1.10;;;;;;;21.23;35.17;100510.31;10377029;28;20064;-57
2023/05/19 16:53:52;;;;;;;2.13;1.05;;;;;;;21.17;34.77;100495.66;10373024;28;20084;-60
2023/05/19 16:58:54;;;;;;;2.88;1.25;;;;;;;21.21;34.39;100516.94;10378596;28;20550;-56
2023/05/19 17:03:55;;;;;;;4.65;2.08;;;;;;;21.04;34.21;100497.34;10379754;28;20711;-57
2023/05/19 17:08:57;;;;;;;2.22;1.20;;;;;;;20.92;34.08;100505.91;10386275;28;20065;-59
2023/05/19 17:13:58;;;;;;;2.70;2.15;;;;;;;20.76;33.53;100506.91;10385601;28;20489;-57
2023/05/19 17:19:00;;;;;;;1.70;1.30;;;;;;;20.65;34.55;100510.03;10386784;28;20563;-58
2023/05/19 17:24:02;;;;;;;2.58;1.23;;;;;;;20.68;35.10;100506.16;10387597;28;20052;-58
2023/05/19 17:29:04;;;;;;;1.80;1.40;;;;;;;20.67;35.29;100518.81;10381285;28;20053;-57
2023/05/19 17:34:06;;;;;;;2.20;1.20;;;;;;;20.63;35.48;100522.91;10381074;28;20513;-57
2023/05/19 17:39:07;;;;;;;3.13;1.75;;;;;;;20.53;34.84;100522.31;10379507;28;21413;-57
2023/05/19 17:44:10;;;;;;;2.05;1.42;;;;;;;20.44;34.76;100525.06;10374101;28;20051;-58
2023/05/19 17:49:12;;;;;;;1.55;1.10;;;;;;;20.32;34.80;100521.13;10378878;28;20714;-57
2023/05/19 17:54:14;;;;;;;4.03;1.30;;;;;;;20.32;34.90;100531.94;10388106;28;20068;-57
2023/05/19 17:59:16;;;;;;;1.55;0.90;;;;;;;20.19;35.31;100515.47;10382109;28;20541;-58
2023/05/19 18:04:18;;;;;;;3.15;1.38;;;;;;;20.01;35.75;100511.22;10380255;28;20056;-57
2023/05/19 18:09:22;;;;;;;1.83;1.20;;;;;;;19.93;35.75;100522.06;10384398;28;20048;-58
2023/05/19 18:14:24;;;;;;;3.08;1.20;;;;;;;19.95;35.98;100536.22;10387153;28;20167;-58
2023/05/19 18:19:26;;;;;;;1.75;0.90;;;;;;;19.81;36.05;100535.13;10383508;28;20064;-58
2023/05/19 18:24:28;;;;;;;2.83;1.05;;;;;;;19.63;35.89;100532.66;10380132;28;20061;-57
2023/05/19 18:29:29;;;;;;;2.90;1.23;;;;;;;19.59;35.00;100534.03;10379127;28;20057;-57
2023/05/19 18:34:31;;;;;;;4.18;1.30;;;;;;;19.43;35.82;100543.03;10377783;28;20173;-54
2023/05/19 18:39:33;;;;;;;4.70;2.28;;;;;;;19.48;37.82;100543.34;10388233;28;20044;-55
2023/05/19 18:44:34;;;;;;;2.63;1.95;;;;;;;19.52;37.27;100542.00;10389011;28;20239;-54
2023/05/19 18:49:36;;;;;;;1.85;1.00;;;;;;;19.51;36.49;100544.88;10372814;28;20154;-58
2023/05/19 18:54:39;;;;;;;3.22;1.40;;;;;;;19.38;36.61;100542.72;10382482;28;20056;-55
2023/05/19 18:59:40;;;;;;;2.90;1.07;;;;;;;19.36;36.70;100552.84;10372731;28;20133;-55
2023/05/19 19:04:42;;;;;;;4.35;1.42;;;;;;;19.35;37.16;100552.03;10387634;28;20166;-54
2023/05/19 19:09:43;;;;;;;2.50;1.27;;;;;;;19.24;37.17;100547.81;10381676;28;20310;-54
2023/05/19 19:14:45;;;;;;;1.70;1.25;;;;;;;19.23;37.40;100556.09;10382352;28;20057;-54
2023/05/19 19:19:47;;;;;;;3.13;1.80;;;;;;;19.14;37.01;100554.41;10385343;28;20838;-55
2023/05/19 19:24:48;;;;;;;4.93;2.80;;;;;;;19.01;37.40;100550.41;10383568;28;20502;-55
2023/05/19 19:29:50;;;;;;;4.25;3.85;;;;;;;18.86;37.79;100546.72;10380496;28;20067;-54
2023/05/19 19:34:52;;;;;;;4.05;2.58;;;;;;;18.95;38.04;100571.84;10373742;28;20163;-55
2023/05/19 19:39:53;;;;;;;2.63;2.10;;;;;;;18.91;38.26;100560.53;10379664;28;20149;-55
2023/05/19 19:44:55;;;;;;;4.53;3.25;;;;;;;18.71;38.01;100558.16;10383717;28;20067;-54
2023/05/19 19:49:57;;;;;;;6.97;4.18;;;;;;;18.80;38.02;100572.50;10381928;28;20048;-55
2023/05/19 19:54:59;;;;;;;2.78;1.90;;;;;;;18.86;38.58;100571.00;10373837;28;20092;-55
2023/05/19 20:00:06;;;;;;;2.92;1.65;;;;;;;18.83;38.55;100574.00;10376630;28;20294;-55
2023/05/19 20:05:08;;;;;;;4.28;1.60;;;;;;;18.57;39.12;100558.00;10378355;28;20076;-54
2023/05/19 20:10:10;;;;;;;3.30;1.67;;;;;;;18.61;39.38;100570.13;10377563;28;20061;-54
2023/05/19 20:15:11;;;;;;;2.00;1.38;;;;;;;18.60;39.50;100563.91;10380482;28;20429;-55
2023/05/19 20:20:13;;;;;;;2.38;1.55;;;;;;;18.51;39.57;100564.91;10384186;28;20050;-56
2023/05/19 20:25:15;;;;;;;2.13;0.90;;;;;;;18.49;39.96;100572.31;10378434;28;20111;-55
2023/05/19 20:30:16;;;;;;;1.77;1.30;;;;;;;18.37;40.24;100561.00;10386078;28;20091;-55
2023/05/19 20:35:18;;;;;;;2.65;1.23;;;;;;;18.36;40.35;100568.28;10374659;28;20060;-57
2023/05/19 20:40:20;;;;;;;2.63;1.17;;;;;;;18.24;40.09;100569.59;10373744;28;20121;-56
2023/05/19 20:45:21;;;;;;;2.53;1.70;;;;;;;18.06;40.69;100568.88;10382800;28;20743;-56
2023/05/19 20:50:23;;;;;;;3.15;1.60;;;;;;;18.02;40.65;100566.50;10383404;28;20047;-57
2023/05/19 20:55:24;;;;;;;3.25;1.40;;;;;;;17.94;41.05;100571.91;10378622;28;20051;-57
2023/05/19 21:00:26;;;;;;;4.53;1.27;;;;;;;17.83;41.28;100569.47;10380356;28;20049;-56
2023/05/19 21:05:30;;;;;;;2.38;1.60;;;;;;;17.62;42.36;100559.94;10380102;28;20049;-56
2023/05/19 21:10:32;;;;;;;2.50;1.05;;;;;;;17.61;41.85;100571.75;10378460;28;20692;-56
2023/05/19 21:15:34;;;;;;;3.38;1.52;;;;;;;17.64;41.85;100581.34;10375437;28;20059;-60
2023/05/19 21:20:37;;;;;;;3.15;1.20;;;;;;;17.45;42.57;100564.44;10379002;28;20073;-57
2023/05/19 21:25:38;;;;;;;3.33;1.25;;;;;;;17.16;42.62;100537.91;10381106;28;20048;-57
2023/05/19 21:30:40;;;;;;;3.47;1.75;;;;;;;17.46;42.41;100576.06;10386622;28;20104;-57
2023/05/19 21:35:43;;;;;;;2.35;1.27;;;;;;;17.25;42.45;100563.84;10371898;28;20717;-57
2023/05/19 21:40:45;;;;;;;2.13;1.35;;;;;;;17.11;43.07;100573.34;10378087;28;20490;-57
2023/05/19 21:45:47;;;;;;;3.78;1.23;;;;;;;16.96;43.46;100575.75;10377460;28;20149;-57
2023/05/19 21:50:53;;;;;;;1.67;1.20;;;;;;;16.82;43.55;100562.84;10376356;28;20191;-58
2023/05/19 21:55:55;;;;;;;3.75;0.90;;;;;;;16.68;43.84;100558.00;10376411;28;20053;-55
2023/05/19 22:00:58;;;;;;;2.00;1.23;;;;;;;16.66;44.12;100568.09;10377670;28;20563;-61
2023/05/19 22:06:00;;;;;;;2.22;1.50;;;;;;;16.79;44.31;100568.53;10377064;28;20111;-57
2023/05/19 22:11:02;;;;;;;1.65;1.45;;;;;;;16.73;44.45;100574.53;10380359;28;20052;-56
2023/05/19 22:16:03;;;;;;;3.50;1.45;;;;;;;16.75;44.69;100577.91;10377501;28;20115;-56
2023/05/19 22:21:05;;;;;;;2.42;1.45;;;;;;;16.41;45.25;100566.03;10376522;28;20059;-56
2023/05/19 22:26:07;;;;;;;2.85;1.60;;;;;;;16.43;45.48;100560.50;10377481;28;20084;-56
2023/05/19 22:31:08;;;;;;;2.30;1.52;;;;;;;16.29;45.48;100561.03;10373719;28;20719;-56
2023/05/19 22:36:10;;;;;;;2.83;1.05;;;;;;;16.15;46.62;100563.25;10387903;28;20493;-57
2023/05/19 22:41:11;;;;;;;3.45;1.45;;;;;;;16.33;46.07;100562.44;10378947;28;20057;-56
2023/05/19 22:46:13;;;;;;;1.63;1.20;;;;;;;16.30;46.21;100563.56;10379237;28;20167;-62
2023/05/19 22:51:14;;;;;;;1.73;1.48;;;;;;;16.22;46.25;100556.28;10378831;28;20072;-58
2023/05/19 22:56:16;;;;;;;3.25;1.50;;;;;;;15.89;47.33;100558.63;10374567;28;20262;-57
2023/05/19 23:01:17;;;;;;;3.95;1.80;;;;;;;15.80;47.45;100556.00;10380915;28;20053;-56
2023/05/19 23:06:20;;;;;;;6.80;1.52;;;;;;;15.73;47.94;100556.59;10374245;28;21603;-57
2023/05/19 23:11:22;;;;;;;1.85;1.70;;;;;;;15.79;48.50;100554.31;10370860;28;20506;-56